createdAt,value
2022-12-22T00:02:35.576Z,13.70
2022-12-22T00:05:31.455Z,16.87
2022-12-22T00:08:17.014Z,15.43
2022-12-22T00:11:02.389Z,16.83
2022-12-22T00:13:47.983Z,13.70
2022-12-22T00:16:33.645Z,13.63
2022-12-22T00:19:19.046Z,19.53
2022-12-22T00:22:06.027Z,19.83
2022-12-22T00:24:51.449Z,22.47
2022-12-22T00:27:45.649Z,39.07
2022-12-22T00:30:32.199Z,13.77
2022-12-22T00:33:17.716Z,21.80
2022-12-22T00:36:03.615Z,15.37
2022-12-22T00:38:50.451Z,13.97
2022-12-22T00:41:35.966Z,13.90
2022-12-22T00:44:21.277Z,13.80
2022-12-22T00:47:06.668Z,9.17
2022-12-22T00:49:54.648Z,11.00
2022-12-22T00:52:42.188Z,10.03
2022-12-22T00:55:33.634Z,10.57
2022-12-22T00:58:20.090Z,8.87
2022-12-22T01:01:05.741Z,7.83
2022-12-22T01:03:51.302Z,8.60
2022-12-22T01:06:36.587Z,8.90
2022-12-22T01:09:23.687Z,10.10
2022-12-22T01:12:10.740Z,12.57
2022-12-22T01:14:56.193Z,14.57
2022-12-22T01:17:41.728Z,14.10
2022-12-22T01:20:27.820Z,23.87
2022-12-22T01:23:13.357Z,35.90
2022-12-22T01:25:58.866Z,55.23
2022-12-22T01:28:45.917Z,21.63
2022-12-22T01:31:36.456Z,32.97
2022-12-22T01:34:22.033Z,25.60
2022-12-22T01:37:07.582Z,11.27
2022-12-22T01:39:53.099Z,10.43
2022-12-22T01:42:38.576Z,11.53
2022-12-22T01:45:38.842Z,10.63
2022-12-22T01:48:27.361Z,14.50
2022-12-22T01:51:12.800Z,10.43
2022-12-22T01:53:58.739Z,11.53
2022-12-22T01:56:44.135Z,13.87
2022-12-22T01:59:29.823Z,13.40
2022-12-22T02:02:19.907Z,12.97
2022-12-22T02:05:06.791Z,13.13
2022-12-22T02:08:10.034Z,11.17
2022-12-22T02:11:26.524Z,11.67
2022-12-22T02:14:29.633Z,11.47
2022-12-22T02:17:24.134Z,11.60
2022-12-22T02:20:31.163Z,11.60
2022-12-22T02:23:25.812Z,13.10
2022-12-22T02:26:17.723Z,13.93
2022-12-22T02:29:06.611Z,13.83
2022-12-22T02:31:53.878Z,15.33
2022-12-22T02:34:39.518Z,14.57
2022-12-22T02:37:31.349Z,14.33
2022-12-22T02:40:21.741Z,16.83
2022-12-22T02:43:16.386Z,19.80
2022-12-22T02:46:12.106Z,17.33
2022-12-22T02:49:03.788Z,17.73
2022-12-22T02:51:54.849Z,17.07
2022-12-22T02:54:41.873Z,20.90
2022-12-22T02:57:27.297Z,19.10
2022-12-22T03:00:12.733Z,17.27
2022-12-22T03:02:59.592Z,18.83
2022-12-22T03:05:45.002Z,18.50
2022-12-22T03:08:30.456Z,18.13
2022-12-22T03:11:15.830Z,19.53
2022-12-22T03:14:01.274Z,19.00
2022-12-22T03:16:46.923Z,19.87
2022-12-22T03:19:33.639Z,19.17
2022-12-22T03:22:19.104Z,18.90
2022-12-22T03:25:04.592Z,19.07
2022-12-22T03:27:32.310Z,18.40
2022-12-22T03:30:00.228Z,19.33
2022-12-22T03:32:28.010Z,17.50
2022-12-22T03:34:57.050Z,18.40
2022-12-22T03:37:24.759Z,21.40
2022-12-22T03:39:52.490Z,21.83
2022-12-22T03:42:37.793Z,20.07
2022-12-22T03:45:24.204Z,18.53
2022-12-22T03:47:51.929Z,22.87
2022-12-22T03:50:21.027Z,18.67
2022-12-22T03:52:48.715Z,22.87
2022-12-22T03:55:16.533Z,24.43
2022-12-22T03:57:44.223Z,23.43
2022-12-22T04:00:12.607Z,22.57
2022-12-22T04:02:40.455Z,19.03
2022-12-22T04:05:09.478Z,24.33
2022-12-22T04:07:38.605Z,22.03
2022-12-22T04:10:24.931Z,24.03
2022-12-22T04:12:55.456Z,22.83
2022-12-22T04:15:23.957Z,20.50
2022-12-22T04:17:51.726Z,20.37
2022-12-22T04:20:20.566Z,23.70
2022-12-22T04:22:49.915Z,24.10
2022-12-22T04:25:17.819Z,21.80
2022-12-22T04:27:45.777Z,21.73
2022-12-22T04:30:14.452Z,22.77
2022-12-22T04:32:42.629Z,20.33
2022-12-22T04:35:11.592Z,23.03
2022-12-22T04:37:39.700Z,21.80
2022-12-22T04:40:09.783Z,25.20
2022-12-22T04:42:37.516Z,19.57
2022-12-22T04:45:06.155Z,22.77
2022-12-22T04:47:33.885Z,23.03
2022-12-22T04:50:01.648Z,21.13
2022-12-22T04:52:29.642Z,22.97
2022-12-22T04:54:57.355Z,22.37
2022-12-22T04:57:26.454Z,24.17
2022-12-22T04:59:55.271Z,19.20
2022-12-22T05:02:23.327Z,21.07
2022-12-22T05:04:51.139Z,22.73
2022-12-22T05:07:18.868Z,22.30
2022-12-22T05:09:46.588Z,20.93
2022-12-22T05:12:32.148Z,22.57
2022-12-22T05:15:01.262Z,23.77
2022-12-22T05:17:28.984Z,26.70
2022-12-22T05:19:56.692Z,25.70
2022-12-22T05:22:24.426Z,27.80
2022-12-22T05:24:52.153Z,27.90
2022-12-22T05:27:19.892Z,27.73
2022-12-22T05:29:47.592Z,26.67
2022-12-22T05:32:16.639Z,24.93
2022-12-22T05:34:44.383Z,27.37
2022-12-22T05:37:12.134Z,26.53
2022-12-22T05:39:39.869Z,25.90
2022-12-22T05:42:07.613Z,26.63
2022-12-22T05:44:35.361Z,25.53
2022-12-22T05:47:03.120Z,27.77
2022-12-22T05:49:32.126Z,28.37
2022-12-22T05:51:59.861Z,26.87
2022-12-22T05:54:27.588Z,28.23
2022-12-22T05:56:55.296Z,26.37
2022-12-22T05:59:22.977Z,24.83
2022-12-22T06:01:50.765Z,26.00
2022-12-22T06:04:18.864Z,22.17
2022-12-22T06:06:48.040Z,28.43
2022-12-22T06:09:15.809Z,25.57
2022-12-22T06:11:43.522Z,25.13
2022-12-22T06:14:11.354Z,24.50
2022-12-22T06:16:39.102Z,23.50
2022-12-22T06:19:07.162Z,26.97
2022-12-22T06:21:34.869Z,25.07
2022-12-22T06:24:04.596Z,21.73
2022-12-22T06:26:32.401Z,21.50
2022-12-22T06:29:00.108Z,24.47
2022-12-22T06:31:27.900Z,20.67
2022-12-22T06:33:55.694Z,21.63
2022-12-22T06:36:23.491Z,21.07
2022-12-22T06:38:51.230Z,22.40
2022-12-22T06:41:40.897Z,22.07
2022-12-22T06:44:07.790Z,21.20
2022-12-22T06:46:35.600Z,21.70
2022-12-22T06:49:03.438Z,22.83
2022-12-22T06:51:31.154Z,21.17
2022-12-22T06:53:58.943Z,20.43
2022-12-22T06:56:28.005Z,20.43
2022-12-22T06:58:55.729Z,22.87
2022-12-22T07:01:24.977Z,21.47
2022-12-22T07:03:52.781Z,22.23
2022-12-22T07:06:20.869Z,22.27
2022-12-22T07:08:49.608Z,20.97
2022-12-22T07:11:17.923Z,18.93
2022-12-22T07:13:46.985Z,19.03
2022-12-22T07:16:14.797Z,21.37
2022-12-22T07:18:44.233Z,17.90
2022-12-22T07:21:13.997Z,19.57
2022-12-22T07:23:42.538Z,19.53
2022-12-22T07:26:11.431Z,17.27
2022-12-22T07:28:41.800Z,19.37
2022-12-22T07:31:11.872Z,18.90
2022-12-22T07:33:40.225Z,17.53
2022-12-22T07:36:11.746Z,19.20
2022-12-22T07:38:42.173Z,19.00
2022-12-22T07:41:25.830Z,18.17
2022-12-22T07:43:54.035Z,17.47
2022-12-22T07:46:24.144Z,22.97
2022-12-22T07:49:09.452Z,19.57
2022-12-22T07:51:39.177Z,22.47
2022-12-22T07:54:08.137Z,21.93
2022-12-22T07:56:36.443Z,22.20
2022-12-22T07:59:04.688Z,25.83
2022-12-22T08:01:33.958Z,22.90
2022-12-22T08:04:01.919Z,21.17
2022-12-22T08:06:29.751Z,21.80
2022-12-22T08:08:57.439Z,21.07
2022-12-22T08:11:25.138Z,19.47
2022-12-22T08:13:59.067Z,20.43
2022-12-22T08:16:28.910Z,21.23
2022-12-22T08:18:58.096Z,19.23
2022-12-22T08:21:25.818Z,19.23
2022-12-22T08:23:53.553Z,18.00
2022-12-22T08:26:26.047Z,20.10
2022-12-22T08:28:57.618Z,22.67
2022-12-22T08:31:27.818Z,19.00
2022-12-22T08:33:57.382Z,18.80
2022-12-22T08:36:27.533Z,19.03
2022-12-22T08:38:57.157Z,18.77
2022-12-22T08:41:38.880Z,19.90
2022-12-22T08:44:06.598Z,18.43
2022-12-22T08:46:34.338Z,18.50
2022-12-22T08:49:02.396Z,13.90
2022-12-22T08:51:31.408Z,16.97
2022-12-22T08:54:06.992Z,16.60
2022-12-22T08:56:35.391Z,15.63
2022-12-22T08:59:05.451Z,16.17
2022-12-22T09:01:34.217Z,16.27
2022-12-22T09:04:02.113Z,17.23
2022-12-22T09:06:38.542Z,15.70
2022-12-22T09:09:12.006Z,15.53
2022-12-22T09:11:40.560Z,16.57
2022-12-22T09:14:09.888Z,15.83
2022-12-22T09:16:39.100Z,14.17
2022-12-22T09:19:07.404Z,15.83
2022-12-22T09:21:37.082Z,17.03
2022-12-22T09:24:07.536Z,14.70
2022-12-22T09:26:36.817Z,16.73
2022-12-22T09:29:05.608Z,12.80
2022-12-22T09:31:34.098Z,14.50
2022-12-22T09:34:02.032Z,17.50
2022-12-22T09:36:31.915Z,14.40
2022-12-22T09:39:05.286Z,12.70
2022-12-22T09:41:37.023Z,13.33
2022-12-22T09:44:06.610Z,14.27
2022-12-22T09:46:37.509Z,13.30
2022-12-22T09:49:07.479Z,11.87
2022-12-22T09:51:40.333Z,13.00
2022-12-22T09:54:12.510Z,13.90
2022-12-22T09:56:40.592Z,11.40
2022-12-22T09:59:11.630Z,14.20
2022-12-22T10:02:12.112Z,13.00
2022-12-22T10:04:52.439Z,15.23
2022-12-22T10:07:27.572Z,11.90
2022-12-22T10:09:56.672Z,14.07
2022-12-22T10:12:27.047Z,12.97
2022-12-22T10:14:56.154Z,13.60
2022-12-22T10:17:26.525Z,11.97
2022-12-22T10:20:07.147Z,14.10
2022-12-22T10:22:39.342Z,11.27
2022-12-22T10:25:26.705Z,13.43
2022-12-22T10:27:57.023Z,10.80
2022-12-22T10:30:26.844Z,9.20
2022-12-22T10:33:07.355Z,10.33
2022-12-22T10:35:48.525Z,11.63
2022-12-22T10:38:21.560Z,10.20
2022-12-22T10:40:58.347Z,11.30
2022-12-22T10:43:32.499Z,10.00
2022-12-22T10:46:01.778Z,11.67
2022-12-22T10:48:32.197Z,10.87
2022-12-22T10:51:01.117Z,9.87
2022-12-22T10:53:45.399Z,11.17
2022-12-22T10:56:22.965Z,10.43
2022-12-22T10:58:52.995Z,9.43
2022-12-22T11:01:27.001Z,10.73
2022-12-22T11:03:55.001Z,9.43
2022-12-22T11:06:23.257Z,8.33
2022-12-22T11:08:52.034Z,9.77
2022-12-22T11:11:35.417Z,10.27
2022-12-22T11:14:10.405Z,11.20
2022-12-22T11:16:45.702Z,7.53
2022-12-22T11:19:33.319Z,8.67
2022-12-22T11:22:07.776Z,7.00
2022-12-22T11:24:46.580Z,8.83
2022-12-22T11:27:28.697Z,8.47
2022-12-22T11:30:06.184Z,7.97
2022-12-22T11:32:50.644Z,9.83
2022-12-22T11:35:27.131Z,7.50
2022-12-22T11:38:01.669Z,8.03
2022-12-22T11:40:33.767Z,7.40
2022-12-22T11:43:18.867Z,8.03
2022-12-22T11:45:57.098Z,7.17
2022-12-22T11:48:47.581Z,6.43
2022-12-22T11:51:27.106Z,6.37
2022-12-22T11:54:26.660Z,8.97
2022-12-22T11:57:03.710Z,8.47
2022-12-22T11:59:42.614Z,7.80
2022-12-22T12:02:56.691Z,9.97
2022-12-22T12:05:43.425Z,8.97
2022-12-22T12:08:23.187Z,6.73
2022-12-22T12:10:57.429Z,5.53
2022-12-22T12:13:37.491Z,10.13
2022-12-22T12:16:15.181Z,5.93
2022-12-22T12:19:26.806Z,6.70
2022-12-22T12:21:58.811Z,6.87
2022-12-22T12:24:46.555Z,8.87
2022-12-22T12:27:26.217Z,8.97
2022-12-22T12:30:36.426Z,6.83
2022-12-22T12:32:55.940Z,10.27
2022-12-22T12:35:36.941Z,8.10
2022-12-22T12:38:26.019Z,7.60
2022-12-22T12:41:07.486Z,8.80
2022-12-22T12:43:36.238Z,10.03
2022-12-22T12:46:50.951Z,7.93
2022-12-22T12:49:53.630Z,9.07
2022-12-22T12:53:16.495Z,9.30
2022-12-22T12:56:09.609Z,9.87
2022-12-22T12:58:52.806Z,9.40
2022-12-22T13:02:01.046Z,9.00
2022-12-22T13:05:16.001Z,7.53
2022-12-22T13:08:17.214Z,7.07
2022-12-22T13:10:49.615Z,9.47
2022-12-22T13:13:52.252Z,10.07
2022-12-22T13:16:37.233Z,8.47
2022-12-22T13:19:22.641Z,12.90
2022-12-22T13:21:53.317Z,11.83
2022-12-22T13:24:29.218Z,10.43
2022-12-22T13:27:03.992Z,11.67
2022-12-22T13:29:42.593Z,10.87
2022-12-22T13:32:29.987Z,9.70
2022-12-22T13:35:30.778Z,10.10
2022-12-22T13:37:54.594Z,11.70
2022-12-22T13:40:25.474Z,11.70
2022-12-22T13:42:55.984Z,9.40
2022-12-22T13:45:31.843Z,9.53
2022-12-22T13:48:01.792Z,9.90
2022-12-22T13:50:35.184Z,11.47
2022-12-22T13:53:06.469Z,10.93
2022-12-22T13:55:36.403Z,9.73
2022-12-22T13:58:07.593Z,9.17
2022-12-22T14:00:36.313Z,10.43
2022-12-22T14:03:08.849Z,10.53
2022-12-22T14:05:36.985Z,11.50
2022-12-22T14:08:06.611Z,9.33
2022-12-22T14:10:38.494Z,10.87
2022-12-22T14:13:11.844Z,13.27
2022-12-22T14:15:39.608Z,10.00
2022-12-22T14:18:07.578Z,9.90
2022-12-22T14:20:38.062Z,9.93
2022-12-22T14:23:09.500Z,12.40
2022-12-22T14:25:41.305Z,22.40
2022-12-22T14:28:16.466Z,12.53
2022-12-22T14:30:47.651Z,10.03
2022-12-22T14:33:18.144Z,12.77
2022-12-22T14:35:46.048Z,10.17
2022-12-22T14:38:24.566Z,12.17
2022-12-22T14:40:57.749Z,10.97
2022-12-22T14:43:30.251Z,12.97
2022-12-22T14:46:09.171Z,14.47
2022-12-22T14:48:40.662Z,12.40
2022-12-22T14:51:08.884Z,11.63
2022-12-22T14:53:44.739Z,14.00
2022-12-22T14:56:15.455Z,16.67
2022-12-22T14:58:44.373Z,15.50
2022-12-22T15:01:19.262Z,13.67
2022-12-22T15:04:00.507Z,11.33
2022-12-22T15:06:37.473Z,13.60
2022-12-22T15:10:12.695Z,19.73
2022-12-22T15:12:18.882Z,13.57
2022-12-22T15:14:48.909Z,11.00
2022-12-22T15:17:22.368Z,10.97
2022-12-22T15:19:50.923Z,12.17
2022-12-22T15:22:18.762Z,10.50
2022-12-22T15:24:47.873Z,9.10
2022-12-22T15:27:17.043Z,8.97
2022-12-22T15:29:44.841Z,9.00
2022-12-22T15:32:13.522Z,7.63
2022-12-22T15:34:41.721Z,9.23
2022-12-22T15:37:12.684Z,10.07
2022-12-22T15:39:40.638Z,8.27
2022-12-22T15:42:08.466Z,8.63
2022-12-22T15:44:39.190Z,7.13
2022-12-22T15:47:09.872Z,7.57
2022-12-22T15:49:37.673Z,6.07
2022-12-22T15:52:07.313Z,6.67
2022-12-22T15:54:36.442Z,7.03
2022-12-22T15:57:04.435Z,6.90
2022-12-22T15:59:32.240Z,6.77
2022-12-22T16:02:02.491Z,8.73
2022-12-22T16:04:30.550Z,9.07
2022-12-22T16:06:59.950Z,7.53
2022-12-22T16:09:31.321Z,7.73
2022-12-22T16:11:59.517Z,8.90
2022-12-22T16:14:27.259Z,8.73
2022-12-22T16:16:56.356Z,10.57
2022-12-22T16:19:25.616Z,8.53
2022-12-22T16:21:54.398Z,8.87
2022-12-22T16:24:27.338Z,9.50
2022-12-22T16:26:57.784Z,9.50
2022-12-22T16:29:26.422Z,10.57
2022-12-22T16:31:54.831Z,10.03
2022-12-22T16:34:22.692Z,9.03
2022-12-22T16:36:51.791Z,16.87
2022-12-22T16:39:19.545Z,13.33
2022-12-22T16:41:47.288Z,13.77
2022-12-22T16:44:28.122Z,16.47
2022-12-22T16:46:58.124Z,15.87
2022-12-22T16:49:26.976Z,15.70
2022-12-22T16:51:56.535Z,15.60
2022-12-22T16:54:24.320Z,15.37
2022-12-22T16:56:52.105Z,15.37
2022-12-22T16:59:19.957Z,14.30
2022-12-22T17:01:51.361Z,16.40
2022-12-22T17:04:23.189Z,16.73
2022-12-22T17:06:51.732Z,14.60
2022-12-22T17:09:24.393Z,16.20
2022-12-22T17:11:53.936Z,20.17
2022-12-22T17:14:29.919Z,17.00
2022-12-22T17:16:58.609Z,18.57
2022-12-22T17:19:26.431Z,17.27
2022-12-22T17:21:56.052Z,17.10
2022-12-22T17:24:28.052Z,16.70
2022-12-22T17:26:57.460Z,16.63
2022-12-22T17:29:25.643Z,15.70
2022-12-22T17:31:56.517Z,15.90
2022-12-22T17:34:25.155Z,17.33
2022-12-22T17:36:53.077Z,19.13
2022-12-22T17:39:23.134Z,18.70
2022-12-22T17:41:56.987Z,20.73
2022-12-22T17:44:27.685Z,22.87
2022-12-22T17:46:55.610Z,27.67
2022-12-22T17:49:23.484Z,23.03
2022-12-22T17:51:51.496Z,21.23
2022-12-22T17:54:23.426Z,23.87
2022-12-22T17:56:53.161Z,27.23
2022-12-22T17:59:20.884Z,26.03
2022-12-22T18:01:48.798Z,28.87
2022-12-22T18:04:16.643Z,29.53
2022-12-22T18:06:44.826Z,25.53
2022-12-22T18:09:19.684Z,31.20
2022-12-22T18:11:47.736Z,31.03
2022-12-22T18:14:16.929Z,28.27
2022-12-22T18:16:45.023Z,27.90
2022-12-22T18:19:12.927Z,31.30
2022-12-22T18:21:40.815Z,33.43
2022-12-22T18:24:15.518Z,28.00
2022-12-22T18:26:43.374Z,29.17
2022-12-22T18:29:16.093Z,32.30
2022-12-22T18:31:44.793Z,28.07
2022-12-22T18:34:13.366Z,30.17
2022-12-22T18:36:44.130Z,37.77
2022-12-22T18:39:18.772Z,34.90
2022-12-22T18:41:47.507Z,41.03
2022-12-22T18:44:18.235Z,37.80
2022-12-22T18:46:46.729Z,36.43
2022-12-22T18:49:14.941Z,38.37
2022-12-22T18:51:43.800Z,36.90
2022-12-22T18:54:23.124Z,37.03
2022-12-22T18:56:50.856Z,40.27
2022-12-22T18:59:25.967Z,39.60
2022-12-22T19:01:53.927Z,45.03
2022-12-22T19:04:21.795Z,44.43
2022-12-22T19:06:49.566Z,42.80
2022-12-22T19:09:17.460Z,36.87
2022-12-22T19:11:45.446Z,41.43
2022-12-22T19:14:19.107Z,41.20
2022-12-22T19:16:49.032Z,38.70
2022-12-22T19:19:19.248Z,50.80
2022-12-22T19:21:47.361Z,47.00
2022-12-22T19:24:15.193Z,48.47
2022-12-22T19:26:43.073Z,54.47
2022-12-22T19:29:14.801Z,49.13
2022-12-22T19:31:44.091Z,46.10
2022-12-22T19:34:18.138Z,43.43
2022-12-22T19:36:46.352Z,49.47
2022-12-22T19:39:14.079Z,48.23
2022-12-22T19:41:46.022Z,39.73
2022-12-22T19:44:19.104Z,41.13
2022-12-22T19:46:47.640Z,39.03
2022-12-22T19:49:18.423Z,37.63
2022-12-22T19:51:46.567Z,37.93
2022-12-22T19:54:14.457Z,34.80
2022-12-22T19:56:43.216Z,31.97
2022-12-22T19:59:28.224Z,37.90
2022-12-22T20:01:59.465Z,30.77
2022-12-22T20:04:28.813Z,37.70
2022-12-22T20:06:56.556Z,32.47
2022-12-22T20:09:24.376Z,35.60
2022-12-22T20:11:52.139Z,33.63
2022-12-22T20:14:20.675Z,35.63
2022-12-22T20:16:48.523Z,44.20
2022-12-22T20:19:16.953Z,31.60
2022-12-22T20:21:46.967Z,19.53
2022-12-22T20:24:22.111Z,31.40
2022-12-22T20:26:54.119Z,66.70
2022-12-22T20:29:23.208Z,45.63
2022-12-22T20:31:51.027Z,30.97
2022-12-22T20:34:18.778Z,26.57
2022-12-22T20:36:47.983Z,22.37
2022-12-22T20:39:18.780Z,21.13
2022-12-22T20:41:52.565Z,20.53
2022-12-22T20:44:21.713Z,21.03
2022-12-22T20:46:49.984Z,17.97
2022-12-22T20:49:17.908Z,24.90
2022-12-22T20:51:47.116Z,17.60
2022-12-22T20:54:15.719Z,33.53
2022-12-22T20:56:45.064Z,25.70
2022-12-22T20:59:15.605Z,22.77
2022-12-22T21:01:43.479Z,23.33
2022-12-22T21:04:11.410Z,27.10
2022-12-22T21:06:40.038Z,31.60
2022-12-22T21:09:09.129Z,33.77
2022-12-22T21:11:36.918Z,31.03
2022-12-22T21:14:04.859Z,34.80
2022-12-22T21:16:34.233Z,33.33
2022-12-22T21:19:02.536Z,33.20
2022-12-22T21:21:30.566Z,33.83
2022-12-22T21:23:58.341Z,39.60
2022-12-22T21:26:32.154Z,41.60
2022-12-22T21:29:00.767Z,35.70
2022-12-22T21:31:28.627Z,35.50
2022-12-22T21:33:56.421Z,35.73
2022-12-22T21:36:26.510Z,42.13
2022-12-22T21:38:58.146Z,41.07
2022-12-22T21:41:41.230Z,41.37
2022-12-22T21:44:09.336Z,44.50
2022-12-22T21:46:37.171Z,38.87
2022-12-22T21:49:04.991Z,41.63
2022-12-22T21:51:32.728Z,32.27
2022-12-22T21:54:00.471Z,44.90
2022-12-22T21:56:29.594Z,34.00
2022-12-22T21:59:03.403Z,42.53
2022-12-22T22:01:31.755Z,36.93
2022-12-22T22:03:59.691Z,32.30
2022-12-22T22:06:27.551Z,33.37
2022-12-22T22:08:55.367Z,31.80
2022-12-22T22:11:24.974Z,35.37
2022-12-22T22:13:54.579Z,33.47
2022-12-22T22:16:22.416Z,27.33
2022-12-22T22:18:50.855Z,23.43
2022-12-22T22:21:18.723Z,16.77
2022-12-22T22:23:46.401Z,16.83
2022-12-22T22:26:14.157Z,22.00
2022-12-22T22:28:42.041Z,19.67
2022-12-22T22:31:12.344Z,26.90
2022-12-22T22:33:40.056Z,32.53
2022-12-22T22:36:08.492Z,27.03
2022-12-22T22:38:36.943Z,29.00
2022-12-22T22:41:04.880Z,37.40
2022-12-22T22:43:32.930Z,36.83
2022-12-22T22:46:00.749Z,36.30
2022-12-22T22:48:29.886Z,37.43
2022-12-22T22:50:57.681Z,39.60
2022-12-22T22:53:25.400Z,38.90
2022-12-22T22:55:53.135Z,41.37
2022-12-22T22:58:20.854Z,35.90
2022-12-22T23:00:48.612Z,39.57
2022-12-22T23:03:16.819Z,37.90
2022-12-22T23:05:46.047Z,38.20
2022-12-22T23:08:13.796Z,38.83
2022-12-22T23:10:48.656Z,38.13
2022-12-22T23:13:16.378Z,40.97
2022-12-22T23:15:44.160Z,39.07
2022-12-22T23:18:11.915Z,40.60
2022-12-22T23:20:44.743Z,36.73
2022-12-22T23:23:13.814Z,41.27
2022-12-22T23:25:43.316Z,36.87
2022-12-22T23:28:11.059Z,31.37
2022-12-22T23:30:39.700Z,28.13
2022-12-22T23:33:07.495Z,23.70
2022-12-22T23:35:37.109Z,22.27
2022-12-22T23:38:05.513Z,40.57
2022-12-22T23:40:51.911Z,30.97
2022-12-22T23:43:21.056Z,27.10
2022-12-22T23:45:48.805Z,36.10
2022-12-22T23:48:16.547Z,25.90
2022-12-22T23:50:46.920Z,30.20
2022-12-22T23:53:14.802Z,27.37
2022-12-22T23:55:45.438Z,38.97
2022-12-22T23:58:15.740Z,25.87
